Time;durP1;ratioP1;P1;durP2;ratioP2;P2;SDS_P1;SDS_P2;PMS_P1;PMS_P2;Temp;Humidity;BMP_temperature;BMP_pressure;BME280_temperature;BME280_humidity;BME280_pressure;Samples;Min_cycle;Max_cycle;Signal;HPM_P1;HPM_P2
2023/06/23 01:07:26;;;;;;;10.27;2.83;;;;;;;;;;6264405;22;20197;-89
2023/06/23 01:10:33;;;;;;;8.70;3.25;;;;;;;;;;6303866;22;20288;-89
2023/06/23 01:13:43;;;;;;;10.95;3.15;;;;;;;;;;6300776;22;20189;-91
2023/06/23 01:16:49;;;;;;;17.27;2.92;;;;;;;;;;6300961;22;20275;-90
2023/06/23 01:20:00;;;;;;;11.57;2.95;;;;;;;;;;6301027;22;20141;-88
2023/06/23 01:23:11;;;;;;;8.10;3.50;;;;;;;;;;6299808;22;20608;-88
2023/06/23 01:26:24;;;;;;;10.77;3.30;;;;;;;;;;6300548;22;20161;-89
2023/06/23 01:29:36;;;;;;;12.90;3.40;;;;;;;;;;6299530;22;20239;-90
2023/06/23 01:32:43;;;;;;;11.35;3.30;;;;;;;;;;6299178;22;20173;-89
2023/06/23 01:35:51;;;;;;;15.68;3.25;;;;;;;;;;6299078;22;20247;-90
2023/06/23 01:39:03;;;;;;;9.60;4.05;;;;;;;;;;6300604;22;20153;-88
2023/06/23 01:42:11;;;;;;;9.20;2.75;;;;;;;;;;6303292;22;20170;-89
2023/06/23 01:45:18;;;;;;;11.88;3.72;;;;;;;;;;6300099;22;20351;-89
2023/06/23 01:48:24;;;;;;;10.43;3.80;;;;;;;;;;6300444;22;20188;-90
2023/06/23 01:51:30;;;;;;;10.13;3.38;;;;;;;;;;6298125;22;20165;-89
2023/06/23 01:54:35;;;;;;;14.25;4.13;;;;;;;;;;6300535;22;20164;-88
2023/06/23 01:57:41;;;;;;;14.80;3.63;;;;;;;;;;6300033;22;20666;-90
2023/06/23 02:00:48;;;;;;;13.35;4.47;;;;;;;;;;6298300;22;20179;-89
2023/06/23 02:03:54;;;;;;;8.13;3.47;;;;;;;;;;6320661;22;20149;-90
2023/06/23 02:07:00;;;;;;;8.85;4.13;;;;;;;;;;6306515;22;20231;-92
2023/06/23 02:10:07;;;;;;;14.20;4.00;;;;;;;;;;6299402;22;20175;-90
2023/06/23 02:13:15;;;;;;;15.52;3.95;;;;;;;;;;6300836;22;20169;-89
2023/06/23 02:16:23;;;;;;;14.18;4.03;;;;;;;;;;6298983;22;20169;-90
2023/06/23 02:19:31;;;;;;;12.70;3.67;;;;;;;;;;6298503;22;20611;-90
2023/06/23 02:22:36;;;;;;;12.43;3.88;;;;;;;;;;6298564;22;20600;-93
2023/06/23 02:25:42;;;;;;;11.18;4.07;;;;;;;;;;6299602;22;20153;-90
2023/06/23 02:28:49;;;;;;;11.05;3.80;;;;;;;;;;6299546;22;20236;-88
2023/06/23 02:31:57;;;;;;;20.50;5.28;;;;;;;;;;6299899;22;20228;-88
2023/06/23 02:35:02;;;;;;;11.25;3.95;;;;;;;;;;6300516;22;20228;-89
2023/06/23 02:38:11;;;;;;;15.23;4.13;;;;;;;;;;6300060;22;20165;-88
2023/06/23 02:41:18;;;;;;;10.25;3.40;;;;;;;;;;6298309;22;20156;-89
2023/06/23 02:44:27;;;;;;;11.10;3.90;;;;;;;;;;6299322;22;20168;-89
2023/06/23 02:47:37;;;;;;;14.88;5.82;;;;;;;;;;6300760;22;20153;-89
2023/06/23 02:50:43;;;;;;;15.02;6.25;;;;;;;;;;6301301;22;20189;-90
2023/06/23 02:53:51;;;;;;;10.60;3.45;;;;;;;;;;6317259;22;20161;-89
2023/06/23 02:57:21;;;;;;;9.27;3.20;;;;;;;;;;6300493;22;20166;-88
2023/06/23 03:00:29;;;;;;;10.68;3.50;;;;;;;;;;6298433;22;20160;-90
2023/06/23 03:03:36;;;;;;;8.00;3.28;;;;;;;;;;6301439;22;20165;-90
2023/06/23 03:06:44;;;;;;;6.25;3.00;;;;;;;;;;6299946;22;20187;-88
2023/06/23 03:09:50;;;;;;;10.27;3.72;;;;;;;;;;6298367;22;20189;-87
2023/06/23 03:12:55;;;;;;;7.55;3.10;;;;;;;;;;6299494;22;20161;-89
2023/06/23 03:16:01;;;;;;;11.07;2.90;;;;;;;;;;6301677;22;20160;-88
2023/06/23 03:19:32;;;;;;;9.32;3.05;;;;;;;;;;6300570;22;20229;-89
2023/06/23 03:22:40;;;;;;;15.57;3.50;;;;;;;;;;6299996;22;20621;-90
2023/06/23 03:25:46;;;;;;;10.52;2.90;;;;;;;;;;6300021;22;20165;-87
2023/06/23 03:28:55;;;;;;;11.07;3.35;;;;;;;;;;6300011;22;20177;-90
2023/06/23 03:32:03;;;;;;;10.40;3.08;;;;;;;;;;6302345;22;20169;-89
2023/06/23 03:35:11;;;;;;;6.82;2.80;;;;;;;;;;6300897;22;20164;-90
2023/06/23 03:38:18;;;;;;;9.25;3.28;;;;;;;;;;6298949;22;20169;-90
2023/06/23 03:41:24;;;;;;;8.63;2.97;;;;;;;;;;6301100;22;20164;-90
2023/06/23 03:44:31;;;;;;;8.82;2.70;;;;;;;;;;6300355;22;20164;-89
2023/06/23 03:47:37;;;;;;;7.30;3.05;;;;;;;;;;6301450;22;20188;-89
2023/06/23 03:50:43;;;;;;;9.38;2.47;;;;;;;;;;6302031;22;20192;-90
2023/06/23 03:53:50;;;;;;;7.80;2.92;;;;;;;;;;6298932;22;20960;-89
2023/06/23 03:57:05;;;;;;;5.93;2.83;;;;;;;;;;6300153;22;20147;-90
2023/06/23 04:00:11;;;;;;;7.70;2.58;;;;;;;;;;6300547;22;20170;-90
2023/06/23 04:03:21;;;;;;;8.32;2.80;;;;;;;;;;6318108;22;20161;-89
2023/06/23 04:06:26;;;;;;;14.25;2.72;;;;;;;;;;6301329;22;20201;-88
2023/06/23 04:09:34;;;;;;;6.45;2.63;;;;;;;;;;6298117;22;20216;-89
2023/06/23 04:12:40;;;;;;;7.25;2.78;;;;;;;;;;6300480;22;20216;-88
2023/06/23 04:15:47;;;;;;;9.73;2.83;;;;;;;;;;6318501;22;20215;-88
2023/06/23 04:18:54;;;;;;;10.43;3.05;;;;;;;;;;6303061;22;20623;-90
2023/06/23 04:22:00;;;;;;;5.72;2.97;;;;;;;;;;6303744;22;20170;-88
2023/06/23 04:25:07;;;;;;;7.25;2.80;;;;;;;;;;6301967;22;20161;-86
2023/06/23 04:28:14;;;;;;;7.88;3.17;;;;;;;;;;6302045;22;20153;-90
2023/06/23 04:31:21;;;;;;;10.73;2.88;;;;;;;;;;6302376;22;20316;-89
2023/06/23 04:34:28;;;;;;;8.15;2.45;;;;;;;;;;6304499;22;20165;-89
2023/06/23 04:37:36;;;;;;;6.93;2.53;;;;;;;;;;6301795;22;20208;-89
2023/06/23 04:40:53;;;;;;;5.47;2.53;;;;;;;;;;6301605;22;20196;-87
2023/06/23 04:44:01;;;;;;;6.03;2.53;;;;;;;;;;6302880;22;20166;-89
2023/06/23 04:47:06;;;;;;;8.40;2.60;;;;;;;;;;6302390;22;20165;-89
2023/06/23 04:50:14;;;;;;;7.10;2.45;;;;;;;;;;6302029;22;20188;-92
2023/06/23 04:53:22;;;;;;;6.40;2.20;;;;;;;;;;6304305;22;20169;-89
2023/06/23 04:56:32;;;;;;;5.38;2.10;;;;;;;;;;6300520;22;20208;-88
2023/06/23 04:59:39;;;;;;;5.65;2.42;;;;;;;;;;6305529;22;20192;-90
2023/06/23 05:02:46;;;;;;;6.25;2.10;;;;;;;;;;6305472;22;20169;-89
2023/06/23 05:05:52;;;;;;;5.22;2.42;;;;;;;;;;6303155;22;20162;-90
2023/06/23 05:08:59;;;;;;;5.90;2.53;;;;;;;;;;6305852;22;20152;-91
2023/06/23 05:12:09;;;;;;;7.72;2.67;;;;;;;;;;6305529;22;20165;-88
2023/06/23 05:15:15;;;;;;;5.50;2.50;;;;;;;;;;6306816;22;20190;-89
2023/06/23 05:18:29;;;;;;;4.80;1.92;;;;;;;;;;6308477;22;20164;-88
2023/06/23 05:21:35;;;;;;;7.35;2.00;;;;;;;;;;6307523;22;20192;-87
2023/06/23 05:24:42;;;;;;;5.85;2.20;;;;;;;;;;6302819;22;20235;-92
2023/06/23 05:27:52;;;;;;;5.75;2.00;;;;;;;;;;6304658;22;20193;-87
2023/06/23 05:30:57;;;;;;;6.03;2.03;;;;;;;;;;6305013;22;20196;-88
2023/06/23 05:34:03;;;;;;;3.97;1.75;;;;;;;;;;6322611;22;20604;-91
2023/06/23 05:37:09;;;;;;;5.15;2.00;;;;;;;;;;6303654;22;20169;-90
2023/06/23 05:40:15;;;;;;;10.45;2.28;;;;;;;;;;6304601;22;20172;-88
2023/06/23 05:43:22;;;;;;;5.57;2.00;;;;;;;;;;6304418;22;20204;-90
2023/06/23 05:46:28;;;;;;;5.25;2.30;;;;;;;;;;6305744;22;20166;-89
2023/06/23 05:49:37;;;;;;;7.13;2.47;;;;;;;;;;6305143;22;20178;-89
2023/06/23 05:52:46;;;;;;;4.57;2.05;;;;;;;;;;6304294;22;20177;-90
2023/06/23 05:55:53;;;;;;;8.15;1.92;;;;;;;;;;6303655;22;20165;-88
2023/06/23 05:59:03;;;;;;;5.82;2.08;;;;;;;;;;6304065;22;20206;-89
2023/06/23 06:02:10;;;;;;;3.97;1.60;;;;;;;;;;6303896;22;20181;-90
2023/06/23 06:05:17;;;;;;;5.72;1.88;;;;;;;;;;6304778;22;20169;-89
2023/06/23 06:08:23;;;;;;;3.78;1.90;;;;;;;;;;6305317;22;20184;-90
2023/06/23 06:11:30;;;;;;;6.65;1.60;;;;;;;;;;6301854;22;20698;-89
2023/06/23 06:14:37;;;;;;;7.75;1.88;;;;;;;;;;6299685;22;20221;-91
2023/06/23 06:17:43;;;;;;;5.60;1.90;;;;;;;;;;6300971;22;20174;-89
2023/06/23 06:20:49;;;;;;;4.63;1.73;;;;;;;;;;6302802;22;20917;-88
2023/06/23 06:23:57;;;;;;;5.65;1.58;;;;;;;;;;6303650;22;20164;-88
2023/06/23 06:27:04;;;;;;;7.10;1.77;;;;;;;;;;6303123;22;20169;-87
2023/06/23 06:30:12;;;;;;;4.50;1.70;;;;;;;;;;6303899;22;20157;-88
2023/06/23 06:33:18;;;;;;;3.53;1.83;;;;;;;;;;6305094;22;20153;-89
2023/06/23 06:39:48;;;;;;;4.07;1.63;;;;;;;;;;6303323;22;20166;-91
2023/06/23 06:42:53;;;;;;;2.72;1.63;;;;;;;;;;6302499;22;20177;-88
2023/06/23 06:46:02;;;;;;;4.05;1.63;;;;;;;;;;6306579;22;20565;-89
2023/06/23 06:49:08;;;;;;;5.28;1.80;;;;;;;;;;6302920;22;20165;-86
2023/06/23 06:52:13;;;;;;;3.20;1.50;;;;;;;;;;6303318;22;20193;-88
2023/06/23 06:55:22;;;;;;;3.83;1.60;;;;;;;;;;6303437;22;20616;-91
2023/06/23 06:58:27;;;;;;;2.85;1.50;;;;;;;;;;6303004;22;20169;-88
2023/06/23 07:01:36;;;;;;;4.45;1.60;;;;;;;;;;6303334;22;20210;-89
2023/06/23 07:04:42;;;;;;;5.28;2.28;;;;;;;;;;6304472;22;20169;-90
2023/06/23 07:07:48;;;;;;;7.53;1.63;;;;;;;;;;6304117;22;20184;-90
2023/06/23 07:10:54;;;;;;;2.03;1.50;;;;;;;;;;6301606;22;20191;-89
2023/06/23 07:13:59;;;;;;;6.80;1.30;;;;;;;;;;6302832;22;20196;-90
2023/06/23 07:17:06;;;;;;;3.80;1.50;;;;;;;;;;6302619;22;20156;-89
2023/06/23 07:20:12;;;;;;;6.90;1.48;;;;;;;;;;6302838;22;20216;-86
2023/06/23 07:23:18;;;;;;;6.03;1.70;;;;;;;;;;6302972;22;20232;-89
2023/06/23 07:26:23;;;;;;;4.32;1.55;;;;;;;;;;6301877;22;20173;-89
2023/06/23 07:29:28;;;;;;;4.15;1.40;;;;;;;;;;6301638;22;20164;-91
2023/06/23 07:32:35;;;;;;;4.85;1.80;;;;;;;;;;6300998;22;20520;-88
2023/06/23 07:35:43;;;;;;;3.80;1.58;;;;;;;;;;6301876;22;20184;-90
2023/06/23 07:38:48;;;;;;;3.15;1.50;;;;;;;;;;6304151;22;20190;-88
2023/06/23 07:41:54;;;;;;;2.45;1.40;;;;;;;;;;6304172;22;20222;-87
2023/06/23 07:44:59;;;;;;;3.20;1.52;;;;;;;;;;6304105;22;20205;-90
2023/06/23 07:48:07;;;;;;;2.53;1.45;;;;;;;;;;6303537;22;20176;-89
2023/06/23 07:51:13;;;;;;;7.55;2.10;;;;;;;;;;6306928;22;20265;-89
2023/06/23 07:54:18;;;;;;;6.05;1.52;;;;;;;;;;6306676;22;20224;-88
2023/06/23 07:57:25;;;;;;;2.55;1.08;;;;;;;;;;6306581;22;20173;-89
2023/06/23 08:00:30;;;;;;;3.60;1.30;;;;;;;;;;6304032;22;20588;-87
2023/06/23 08:03:46;;;;;;;1.42;1.00;;;;;;;;;;6305110;22;20173;-88
2023/06/23 08:06:52;;;;;;;1.50;1.20;;;;;;;;;;6306710;22;20208;-91
2023/06/23 08:09:57;;;;;;;4.07;1.20;;;;;;;;;;6305773;22;20162;-87
2023/06/23 08:13:02;;;;;;;2.80;1.13;;;;;;;;;;6304420;22;20169;-88
2023/06/23 08:16:09;;;;;;;3.38;1.20;;;;;;;;;;6304079;22;20173;-90
2023/06/23 08:19:21;;;;;;;2.45;0.93;;;;;;;;;;6302510;22;20153;-88
2023/06/23 08:22:26;;;;;;;2.28;0.95;;;;;;;;;;6303250;22;20172;-88
2023/06/23 08:25:32;;;;;;;1.75;1.02;;;;;;;;;;6306904;22;20204;-88
2023/06/23 08:28:38;;;;;;;1.63;0.93;;;;;;;;;;6305646;22;20170;-88
2023/06/23 08:31:44;;;;;;;2.05;1.10;;;;;;;;;;6305706;22;20193;-88
2023/06/23 08:34:51;;;;;;;2.55;1.00;;;;;;;;;;6304622;22;20256;-89
2023/06/23 08:37:57;;;;;;;2.22;0.90;;;;;;;;;;6304796;22;20184;-89
2023/06/23 08:41:09;;;;;;;3.00;1.52;;;;;;;;;;6306880;22;20184;-91
2023/06/23 08:44:15;;;;;;;4.18;2.55;;;;;;;;;;6303216;22;20183;-88
2023/06/23 08:47:21;;;;;;;4.70;2.78;;;;;;;;;;6302680;22;20169;-88
2023/06/23 08:50:28;;;;;;;5.32;2.80;;;;;;;;;;6302357;22;20185;-88
2023/06/23 08:53:33;;;;;;;6.10;2.92;;;;;;;;;;6303365;22;20156;-88
2023/06/23 08:57:06;;;;;;;6.28;3.03;;;;;;;;;;6304600;22;20236;-88
2023/06/23 09:00:11;;;;;;;8.50;3.58;;;;;;;;;;6304245;22;20169;-88
2023/06/23 09:03:16;;;;;;;5.80;3.03;;;;;;;;;;6304091;22;20181;-89
2023/06/23 09:06:23;;;;;;;7.28;3.38;;;;;;;;;;6302887;22;20170;-90
2023/06/23 09:09:28;;;;;;;5.75;3.45;;;;;;;;;;6304327;22;20212;-88
2023/06/23 09:12:33;;;;;;;7.43;3.95;;;;;;;;;;6304487;22;20193;-88
2023/06/23 09:15:39;;;;;;;4.50;3.13;;;;;;;;;;6304468;22;20169;-91
2023/06/23 09:18:49;;;;;;;6.45;3.40;;;;;;;;;;6304311;22;20169;-90
2023/06/23 09:21:56;;;;;;;7.30;3.22;;;;;;;;;;6305981;22;20161;-88
2023/06/23 09:25:02;;;;;;;6.80;3.35;;;;;;;;;;6303078;22;20157;-88
2023/06/23 09:28:07;;;;;;;10.40;3.35;;;;;;;;;;6303971;22;20168;-89
2023/06/23 09:31:13;;;;;;;7.38;3.60;;;;;;;;;;6303373;22;20212;-86
2023/06/23 09:34:22;;;;;;;6.45;3.70;;;;;;;;;;6305329;22;20185;-89
2023/06/23 09:37:36;;;;;;;6.68;3.75;;;;;;;;;;6305832;22;20237;-89
2023/06/23 09:40:43;;;;;;;6.88;3.83;;;;;;;;;;6303093;22;20208;-87
2023/06/23 09:43:50;;;;;;;6.22;3.53;;;;;;;;;;6304566;22;20658;-89
2023/06/23 09:47:00;;;;;;;5.82;3.60;;;;;;;;;;6303954;22;20172;-90
2023/06/23 09:50:05;;;;;;;5.95;3.83;;;;;;;;;;6321479;22;20173;-90
2023/06/23 09:53:12;;;;;;;6.22;3.90;;;;;;;;;;6302014;22;20192;-90
2023/06/23 09:56:20;;;;;;;5.82;3.50;;;;;;;;;;6302636;22;20173;-90
2023/06/23 09:59:26;;;;;;;8.23;3.95;;;;;;;;;;6305196;22;20162;-89
2023/06/23 10:02:31;;;;;;;5.93;3.83;;;;;;;;;;6305829;22;20255;-90
2023/06/23 10:05:38;;;;;;;10.70;4.10;;;;;;;;;;6306114;22;20169;-91
2023/06/23 10:08:44;;;;;;;8.50;4.00;;;;;;;;;;6300801;22;20210;-87
2023/06/23 10:11:50;;;;;;;7.10;4.20;;;;;;;;;;6300790;22;20207;-89
2023/06/23 10:14:56;;;;;;;7.22;4.43;;;;;;;;;;6303324;22;20161;-90
2023/06/23 10:18:05;;;;;;;10.23;4.30;;;;;;;;;;6304380;22;20162;-89
2023/06/23 10:21:11;;;;;;;9.52;4.88;;;;;;;;;;6304500;22;20169;-89
2023/06/23 10:24:21;;;;;;;7.50;4.00;;;;;;;;;;6302073;22;20186;-91
2023/06/23 10:27:27;;;;;;;6.75;4.30;;;;;;;;;;6305100;22;20168;-88
2023/06/23 10:30:32;;;;;;;6.60;4.13;;;;;;;;;;6304725;22;20214;-89
2023/06/23 10:33:42;;;;;;;8.18;4.78;;;;;;;;;;6303846;22;20238;-90
2023/06/23 10:36:51;;;;;;;9.00;4.80;;;;;;;;;;6303455;22;20204;-92
2023/06/23 10:40:01;;;;;;;11.65;4.78;;;;;;;;;;6303153;22;20177;-89
2023/06/23 10:43:08;;;;;;;10.00;5.47;;;;;;;;;;6284506;22;20165;-87
2023/06/23 10:46:13;;;;;;;8.00;4.60;;;;;;;;;;6304039;22;20190;-88
2023/06/23 10:49:19;;;;;;;7.63;4.80;;;;;;;;;;6303110;22;20237;-89
2023/06/23 10:52:24;;;;;;;7.28;5.00;;;;;;;;;;6303304;22;20274;-90
2023/06/23 10:55:38;;;;;;;7.00;4.47;;;;;;;;;;6301846;22;20169;-89
2023/06/23 11:03:02;;;;;;;10.00;4.57;;;;;;;;;;6320514;22;20205;-89
2023/06/23 11:06:09;;;;;;;10.63;5.05;;;;;;;;;;6301430;22;20165;-88
2023/06/23 11:09:29;;;;;;;11.77;5.32;;;;;;;;;;6305193;22;20149;-88
2023/06/23 11:12:42;;;;;;;9.13;5.45;;;;;;;;;;6306365;22;20197;-88
2023/06/23 11:15:59;;;;;;;7.18;4.70;;;;;;;;;;6303517;22;20158;-89
2023/06/23 11:19:05;;;;;;;8.70;4.78;;;;;;;;;;6301726;22;20177;-89
2023/06/23 11:22:11;;;;;;;10.00;5.47;;;;;;;;;;6302783;22;20207;-89
2023/06/23 11:25:24;;;;;;;7.93;5.25;;;;;;;;;;6304181;22;20184;-90
2023/06/23 11:28:34;;;;;;;10.63;5.50;;;;;;;;;;6303894;22;20251;-90
2023/06/23 11:31:55;;;;;;;12.23;6.03;;;;;;;;;;6302345;22;20188;-89
2023/06/23 11:35:01;;;;;;;13.98;6.25;;;;;;;;;;6305827;22;20192;-90
2023/06/23 11:38:06;;;;;;;15.93;7.88;;;;;;;;;;6307574;22;20165;-90
2023/06/23 11:44:45;;;;;;;11.68;6.00;;;;;;;;;;6305874;22;20224;-88
2023/06/23 11:47:52;;;;;;;10.95;6.65;;;;;;;;;;6304884;22;20165;-89
2023/06/23 11:50:57;;;;;;;9.60;5.70;;;;;;;;;;6306466;22;20169;-90
2023/06/23 11:54:09;;;;;;;11.95;5.68;;;;;;;;;;6308249;22;20172;-88
2023/06/23 12:01:34;;;;;;;12.45;5.50;;;;;;;;;;6327496;22;20158;-89
2023/06/23 12:04:43;;;;;;;10.95;6.20;;;;;;;;;;6312105;22;20200;-90
2023/06/23 12:11:08;;;;;;;9.80;5.45;;;;;;;;;;6308495;22;20176;-89
2023/06/23 12:14:14;;;;;;;11.50;6.35;;;;;;;;;;6309664;22;20654;-90
2023/06/23 12:17:23;;;;;;;10.45;5.80;;;;;;;;;;6310031;22;20200;-89
2023/06/23 12:20:28;;;;;;;9.93;5.88;;;;;;;;;;6310685;22;20192;-90
2023/06/23 12:23:37;;;;;;;13.95;6.40;;;;;;;;;;6309222;22;20206;-88
2023/06/23 12:26:43;;;;;;;13.15;5.82;;;;;;;;;;6308420;22;20214;-91
2023/06/23 12:29:49;;;;;;;10.98;5.60;;;;;;;;;;6309693;22;20177;-88
2023/06/23 12:32:56;;;;;;;9.73;6.15;;;;;;;;;;6308835;22;20252;-88
2023/06/23 12:36:03;;;;;;;8.70;5.30;;;;;;;;;;6306110;22;20469;-90
2023/06/23 12:39:15;;;;;;;12.88;6.85;;;;;;;;;;6308958;22;20177;-87
2023/06/23 12:42:21;;;;;;;9.07;5.30;;;;;;;;;;6304917;22;20161;-88
2023/06/23 12:45:28;;;;;;;11.13;6.20;;;;;;;;;;6305138;22;20248;-90
2023/06/23 12:48:34;;;;;;;10.52;5.57;;;;;;;;;;6304623;22;20169;-89
2023/06/23 12:51:40;;;;;;;8.55;5.65;;;;;;;;;;6304388;22;20165;-87
2023/06/23 12:54:44;;;;;;;13.50;6.78;;;;;;;;;;6304646;22;20165;-87
2023/06/23 12:57:52;;;;;;;11.25;6.22;;;;;;;;;;6303318;22;20283;-87
2023/06/23 13:00:57;;;;;;;13.60;6.25;;;;;;;;;;6303953;22;20204;-86
2023/06/23 13:04:05;;;;;;;17.23;6.70;;;;;;;;;;6305789;22;20219;-90
2023/06/23 13:07:10;;;;;;;11.13;6.82;;;;;;;;;;6305309;22;20193;-92
2023/06/23 13:10:15;;;;;;;14.25;6.45;;;;;;;;;;6306271;22;20169;-90
2023/06/23 13:13:21;;;;;;;17.00;6.75;;;;;;;;;;6306289;22;20188;-89
2023/06/23 13:16:26;;;;;;;12.23;6.38;;;;;;;;;;6304911;22;20169;-89
2023/06/23 13:19:37;;;;;;;14.07;6.22;;;;;;;;;;6278508;22;20184;-88
2023/06/23 13:22:43;;;;;;;10.90;5.70;;;;;;;;;;6305803;22;20175;-89
2023/06/23 13:25:49;;;;;;;9.27;6.07;;;;;;;;;;6304152;22;20185;-90
2023/06/23 13:28:54;;;;;;;12.85;5.78;;;;;;;;;;6302500;22;20507;-89
2023/06/23 13:31:59;;;;;;;11.00;6.25;;;;;;;;;;6303129;22;20165;-91
2023/06/23 13:35:06;;;;;;;13.75;6.43;;;;;;;;;;6303714;22;20161;-89
2023/06/23 13:38:13;;;;;;;11.88;6.55;;;;;;;;;;6307328;22;20172;-90
2023/06/23 13:41:18;;;;;;;13.13;5.88;;;;;;;;;;6304299;22;20169;-89
2023/06/23 13:44:24;;;;;;;11.50;6.30;;;;;;;;;;6303080;22;20496;-91
2023/06/23 13:47:29;;;;;;;8.18;5.55;;;;;;;;;;6302287;22;20161;-91
2023/06/23 13:50:36;;;;;;;11.38;6.63;;;;;;;;;;6301851;22;20192;-88
2023/06/23 13:53:41;;;;;;;8.95;5.95;;;;;;;;;;6302783;22;20168;-88
2023/06/23 13:56:48;;;;;;;13.10;6.50;;;;;;;;;;6302970;22;20165;-90
2023/06/23 13:59:54;;;;;;;13.38;6.40;;;;;;;;;;6301991;22;20216;-90
2023/06/23 14:02:59;;;;;;;9.95;5.63;;;;;;;;;;6303110;22;20169;-91
2023/06/23 14:06:06;;;;;;;12.23;6.07;;;;;;;;;;6307017;22;20160;-89
2023/06/23 14:09:11;;;;;;;8.25;5.10;;;;;;;;;;6303650;22;20184;-90
2023/06/23 14:12:16;;;;;;;9.20;5.22;;;;;;;;;;6305790;22;20177;-92
2023/06/23 14:15:21;;;;;;;9.27;4.95;;;;;;;;;;6306510;22;20168;-90
2023/06/23 14:18:27;;;;;;;7.68;5.20;;;;;;;;;;6306449;22;20216;-90
2023/06/23 14:21:34;;;;;;;9.63;5.13;;;;;;;;;;6303323;22;20180;-91
2023/06/23 14:24:39;;;;;;;9.57;5.70;;;;;;;;;;6305604;22;20552;-91
2023/06/23 14:27:44;;;;;;;12.43;5.50;;;;;;;;;;6302003;22;20203;-91
2023/06/23 14:30:50;;;;;;;13.13;5.80;;;;;;;;;;6302711;22;20168;-90
2023/06/23 14:33:56;;;;;;;10.82;5.40;;;;;;;;;;6301924;22;20636;-90
2023/06/23 14:37:04;;;;;;;16.63;6.57;;;;;;;;;;6303579;22;20165;-87
2023/06/23 14:40:20;;;;;;;10.73;5.97;;;;;;;;;;6304687;22;20191;-91
2023/06/23 14:43:26;;;;;;;9.65;5.13;;;;;;;;;;6306127;22;20169;-88
2023/06/23 14:46:32;;;;;;;10.90;5.07;;;;;;;;;;6306655;22;20500;-89
2023/06/23 14:49:37;;;;;;;9.23;5.25;;;;;;;;;;6304317;22;20180;-89
2023/06/23 14:52:44;;;;;;;8.27;5.63;;;;;;;;;;6305843;22;20197;-90
2023/06/23 14:55:50;;;;;;;9.10;4.35;;;;;;;;;;6306160;22;20167;-88
2023/06/23 14:59:10;;;;;;;7.15;4.82;;;;;;;;;;6304846;22;20172;-87
2023/06/23 15:02:15;;;;;;;10.52;4.43;;;;;;;;;;6305405;22;20161;-89
2023/06/23 15:05:21;;;;;;;9.65;4.65;;;;;;;;;;6304344;22;20169;-91
2023/06/23 15:08:28;;;;;;;9.00;4.00;;;;;;;;;;6303111;22;20193;-88
2023/06/23 15:11:43;;;;;;;5.82;3.83;;;;;;;;;;6305414;22;20165;-89
2023/06/23 15:14:48;;;;;;;7.70;4.20;;;;;;;;;;6304189;22;20173;-89
2023/06/23 15:17:53;;;;;;;8.35;4.25;;;;;;;;;;6302226;22;20161;-92
2023/06/23 15:20:59;;;;;;;6.35;4.25;;;;;;;;;;6302699;22;20153;-88
2023/06/23 15:24:06;;;;;;;9.15;3.58;;;;;;;;;;6302620;22;20169;-89
2023/06/23 15:27:11;;;;;;;5.90;3.78;;;;;;;;;;6301793;22;20213;-89
2023/06/23 15:30:16;;;;;;;6.35;3.97;;;;;;;;;;6302786;22;20594;-88
2023/06/23 15:33:21;;;;;;;8.35;4.07;;;;;;;;;;6303551;22;20315;-89
2023/06/23 15:36:26;;;;;;;9.18;3.88;;;;;;;;;;6302848;22;20276;-90
2023/06/23 15:39:35;;;;;;;10.07;4.15;;;;;;;;;;6301677;22;20215;-90
2023/06/23 15:42:40;;;;;;;6.50;3.50;;;;;;;;;;6303400;22;20267;-88
2023/06/23 15:45:46;;;;;;;13.95;3.97;;;;;;;;;;6303181;22;20226;-88
2023/06/23 15:48:53;;;;;;;7.30;4.40;;;;;;;;;;6303225;22;20489;-88
2023/06/23 15:51:58;;;;;;;7.20;4.18;;;;;;;;;;6303142;22;20220;-88
2023/06/23 15:55:06;;;;;;;11.32;4.65;;;;;;;;;;6303329;22;20219;-88
2023/06/23 15:58:17;;;;;;;8.15;4.50;;;;;;;;;;6304818;22;20170;-89
2023/06/23 16:01:23;;;;;;;6.95;4.05;;;;;;;;;;6305539;22;20204;-89
2023/06/23 16:04:28;;;;;;;7.55;4.90;;;;;;;;;;6304351;22;20196;-89
2023/06/23 16:07:33;;;;;;;10.38;4.22;;;;;;;;;;6303694;22;20188;-87
2023/06/23 16:10:41;;;;;;;7.55;4.78;;;;;;;;;;6304611;22;20239;-89
2023/06/23 16:13:48;;;;;;;9.35;4.28;;;;;;;;;;6305433;22;20618;-87
2023/06/23 16:16:53;;;;;;;8.85;4.72;;;;;;;;;;6306791;22;20173;-90
2023/06/23 16:20:08;;;;;;;8.65;4.28;;;;;;;;;;6306038;22;20169;-88
2023/06/23 16:23:14;;;;;;;7.90;4.35;;;;;;;;;;6305227;22;20229;-90
2023/06/23 16:26:20;;;;;;;9.30;4.80;;;;;;;;;;6304110;22;20172;-90
2023/06/23 16:29:26;;;;;;;12.57;4.32;;;;;;;;;;6304924;22;20218;-89
2023/06/23 16:32:31;;;;;;;8.48;4.00;;;;;;;;;;6305143;22;20284;-89
2023/06/23 16:35:37;;;;;;;8.52;3.83;;;;;;;;;;6305279;22;20181;-89
2023/06/23 16:38:44;;;;;;;7.15;3.88;;;;;;;;;;6303770;22;20231;-88
2023/06/23 16:41:52;;;;;;;8.05;3.92;;;;;;;;;;6304329;22;20237;-88
2023/06/23 16:44:57;;;;;;;6.38;3.90;;;;;;;;;;6308359;22;20170;-89
2023/06/23 16:48:03;;;;;;;6.05;3.90;;;;;;;;;;6307028;22;20220;-89
2023/06/23 16:51:08;;;;;;;7.13;4.00;;;;;;;;;;6307199;22;20169;-89
2023/06/23 16:54:15;;;;;;;4.35;3.28;;;;;;;;;;6304493;22;20643;-90
2023/06/23 16:57:28;;;;;;;5.90;3.80;;;;;;;;;;6309677;22;20145;-88
2023/06/23 17:00:33;;;;;;;6.90;3.83;;;;;;;;;;6313267;22;20184;-90
2023/06/23 17:03:38;;;;;;;8.15;3.83;;;;;;;;;;6305286;22;20169;-90
2023/06/23 17:06:48;;;;;;;6.38;3.30;;;;;;;;;;6305023;22;20188;-89
2023/06/23 17:09:53;;;;;;;5.90;4.05;;;;;;;;;;6302023;22;20186;-90
2023/06/23 17:12:59;;;;;;;5.80;3.58;;;;;;;;;;6303892;22;20161;-92
2023/06/23 17:16:04;;;;;;;5.85;3.67;;;;;;;;;;6324016;22;20169;-87
2023/06/23 17:19:10;;;;;;;6.35;3.58;;;;;;;;;;6304885;22;20161;-88
2023/06/23 17:22:15;;;;;;;4.78;2.08;;;;;;;;;;6306985;22;20162;-89
2023/06/23 17:25:22;;;;;;;3.17;2.10;;;;;;;;;;6305690;22;20271;-89
2023/06/23 17:28:29;;;;;;;3.55;2.15;;;;;;;;;;6306463;22;20184;-89
2023/06/23 17:31:34;;;;;;;5.30;2.38;;;;;;;;;;6302724;22;20169;-87
2023/06/23 17:34:39;;;;;;;6.50;2.58;;;;;;;;;;6305089;22;20192;-89
2023/06/23 17:37:44;;;;;;;4.65;2.25;;;;;;;;;;6303656;22;20172;-90
2023/06/23 17:40:53;;;;;;;6.03;2.78;;;;;;;;;;6308473;22;20165;-89
2023/06/23 17:44:09;;;;;;;3.35;1.92;;;;;;;;;;6315057;22;20180;-87
2023/06/23 19:15:20;;;;;;;1.85;1.25;;;;;;;;;;6209599;22;20911;-90
2023/06/23 19:18:26;;;;;;;1.55;1.20;;;;;;;;;;6237640;23;20166;-89
2023/06/23 19:21:31;;;;;;;5.10;1.40;;;;;;;;;;6239932;23;20251;-88
2023/06/23 19:24:36;;;;;;;1.65;1.15;;;;;;;;;;6239694;23;20170;-89
2023/06/23 19:27:42;;;;;;;2.92;1.27;;;;;;;;;;6239110;22;20544;-89
2023/06/23 19:30:49;;;;;;;3.28;1.38;;;;;;;;;;6258428;22;20158;-86
2023/06/23 19:33:54;;;;;;;4.35;1.50;;;;;;;;;;6238386;22;20202;-88
2023/06/23 19:36:59;;;;;;;3.88;1.50;;;;;;;;;;6241162;23;20225;-89
2023/06/23 19:40:39;;;;;;;2.90;1.63;;;;;;;;;;6239371;23;20286;-88
2023/06/23 19:43:44;;;;;;;5.22;2.70;;;;;;;;;;6240117;22;20167;-89
2023/06/23 19:46:51;;;;;;;2.92;1.90;;;;;;;;;;6241409;22;20166;-88
2023/06/23 19:49:56;;;;;;;3.28;1.50;;;;;;;;;;6242129;23;20154;-88
2023/06/23 19:53:02;;;;;;;4.22;1.55;;;;;;;;;;6241535;23;20174;-88
2023/06/23 19:56:48;;;;;;;3.33;1.90;;;;;;;;;;6241652;22;20166;-86
2023/06/23 19:59:53;;;;;;;2.20;1.20;;;;;;;;;;6241612;23;20551;-89
2023/06/23 20:03:00;;;;;;;3.80;1.77;;;;;;;;;;6242510;23;20198;-88
2023/06/23 20:06:06;;;;;;;2.92;1.75;;;;;;;;;;6223972;23;20161;-90
2023/06/23 20:09:11;;;;;;;4.10;1.60;;;;;;;;;;6240228;23;20178;-90
2023/06/23 20:12:17;;;;;;;4.18;1.70;;;;;;;;;;6242965;22;20170;-88
2023/06/23 20:15:22;;;;;;;2.75;1.80;;;;;;;;;;6244351;22;20194;-89
2023/06/23 20:22:04;;;;;;;3.00;1.88;;;;;;;;;;6272501;22;20161;-87
2023/06/23 20:25:11;;;;;;;4.65;1.95;;;;;;;;;;6270614;22;20621;-89
2023/06/23 20:28:19;;;;;;;2.75;1.60;;;;;;;;;;6270826;22;20263;-89
2023/06/23 20:31:24;;;;;;;3.13;1.50;;;;;;;;;;6270183;22;20252;-89
2023/06/23 20:34:29;;;;;;;4.45;1.70;;;;;;;;;;6270527;22;20324;-87
2023/06/23 20:37:37;;;;;;;3.60;1.60;;;;;;;;;;6270641;22;20641;-90
2023/06/23 20:40:44;;;;;;;3.65;1.60;;;;;;;;;;6271093;22;20243;-89
2023/06/23 20:43:49;;;;;;;3.45;1.92;;;;;;;;;;6273094;22;20216;-88
2023/06/23 20:46:54;;;;;;;3.85;1.65;;;;;;;;;;6274083;22;20165;-88
2023/06/23 20:50:00;;;;;;;5.97;1.80;;;;;;;;;;6272768;22;20217;-88
2023/06/23 20:53:06;;;;;;;3.50;1.55;;;;;;;;;;6272071;22;20170;-87
2023/06/23 20:56:16;;;;;;;3.10;1.67;;;;;;;;;;6271388;22;20166;-90
2023/06/23 20:59:22;;;;;;;7.57;2.45;;;;;;;;;;6272151;22;20489;-89
2023/06/23 21:02:26;;;;;;;2.90;1.73;;;;;;;;;;6273295;22;20170;-90
2023/06/23 21:05:32;;;;;;;3.15;1.58;;;;;;;;;;6274203;22;20189;-88
2023/06/23 21:08:39;;;;;;;2.40;1.60;;;;;;;;;;6273999;22;20669;-87
2023/06/23 21:11:45;;;;;;;4.05;1.58;;;;;;;;;;6274779;22;20234;-88
2023/06/23 21:14:50;;;;;;;3.92;1.67;;;;;;;;;;6273748;22;20189;-90
2023/06/23 21:21:31;;;;;;;6.43;1.90;;;;;;;;;;6271525;22;20161;-89
2023/06/23 21:24:37;;;;;;;3.28;1.70;;;;;;;;;;6272640;22;20232;-88
2023/06/23 21:27:43;;;;;;;7.57;2.30;;;;;;;;;;6274259;22;20201;-87
2023/06/23 21:30:48;;;;;;;3.15;1.70;;;;;;;;;;6272234;22;20190;-88
2023/06/23 21:33:54;;;;;;;2.20;1.48;;;;;;;;;;6273559;22;20200;-90
2023/06/23 21:36:59;;;;;;;2.97;1.70;;;;;;;;;;6273378;22;20162;-89